Main page
METAR-TAF:

METAR-TAF

Airports :

Rodez, France

Rodez–Aveyron Airport

latitude: 44-24N, longitude: 002-29E, elevation: 581 m

Current weather observation

The report was made 37 minutes ago, at 10:30 UTC
Wind 15 kt from the South/Southeast
Temperature 13°C
Humidity 77%
Pressure 1016 hPa
Visibility 10 km or more
no clouds below 1500 m and no cumulonimbus

METAR: LFCR 231030Z AUTO 15015KT CAVOK 13/09 Q1016 NOSIG

Time: 12:07 (11:07 UTC)

Forecast

The report was made 6 hours and 7 minutes ago, at 05:00 UTC
Forecast valid from 23 at 06 UTC to 24 at 06 UTC
Wind 12 kt from the Southeast
Visibility 10 km or more
no clouds below 1500 m and no cumulonimbus
Probability 30% :
Temporary
from 23 at 06 UTC to 23 at 11 UTC
Wind 15 kt from the Southeast with gusts up to 25 kt

TAF: LFCR 230500Z 2306/2406 14012KT CAVOK PROB30 TEMPO 2306/2311 14015G25KT

Weather observations and forecasts of more than 4000 airports (METAR and TAF reports).

The available stations are represented by yellow and red dots on the map.

Hover mouse over dot to see the name of the station.

Then click to see weather observations and forecasts.

To change the map : click on the green buttons with a black cross to zoom in, on the green button with a dash to zoom out, or on the green arrows for adjacent maps.


METAR-TAF: